createdAt,value
2023-03-05T00:01:06.546Z,34.56
2023-03-05T00:03:33.894Z,34.59
2023-03-05T00:06:00.591Z,34.33
2023-03-05T00:08:27.809Z,34.57
2023-03-05T00:11:01.184Z,34.44
2023-03-05T00:13:27.930Z,34.38
2023-03-05T00:15:54.560Z,34.72
2023-03-05T00:18:21.465Z,34.40
2023-03-05T00:20:48.034Z,34.86
2023-03-05T00:23:14.566Z,34.53
2023-03-05T00:25:41.228Z,34.43
2023-03-05T00:28:08.048Z,34.38
2023-03-05T00:30:34.888Z,34.61
2023-03-05T00:33:02.436Z,34.39
2023-03-05T00:35:29.152Z,34.79
2023-03-05T00:37:55.815Z,34.47
2023-03-05T00:40:22.862Z,34.52
2023-03-05T00:42:49.577Z,34.73
2023-03-05T00:45:16.034Z,34.69
2023-03-05T00:47:42.780Z,34.84
2023-03-05T00:50:09.543Z,34.40
2023-03-05T00:52:36.065Z,34.24
2023-03-05T00:55:03.447Z,34.39
2023-03-05T00:57:30.088Z,34.84
2023-03-05T00:59:56.813Z,34.68
2023-03-05T01:02:23.547Z,34.74
2023-03-05T01:04:50.495Z,34.33
2023-03-05T01:07:17.156Z,34.55
2023-03-05T01:09:45.692Z,34.81
2023-03-05T01:12:12.431Z,34.89
2023-03-05T01:14:39.012Z,34.42
2023-03-05T01:17:05.612Z,34.38
2023-03-05T01:19:32.118Z,34.82
2023-03-05T01:21:59.178Z,34.45
2023-03-05T01:24:25.864Z,34.32
2023-03-05T01:26:52.488Z,34.48
2023-03-05T01:29:18.934Z,34.38
2023-03-05T01:31:45.815Z,34.51
2023-03-05T01:34:12.381Z,34.45
2023-03-05T01:36:40.705Z,34.69
2023-03-05T01:39:07.228Z,34.24
2023-03-05T01:41:34.345Z,34.29
2023-03-05T01:44:00.810Z,34.23
2023-03-05T01:46:37.368Z,34.57
2023-03-05T01:49:11.722Z,34.50
2023-03-05T01:51:40.907Z,34.46
2023-03-05T01:54:07.816Z,34.41
2023-03-05T01:56:34.385Z,34.77
2023-03-05T01:59:03.560Z,34.87
2023-03-05T02:01:31.389Z,34.56
2023-03-05T02:03:58.978Z,34.77
2023-03-05T02:06:25.642Z,34.82
2023-03-05T02:08:52.109Z,34.51
2023-03-05T02:11:18.599Z,34.67
2023-03-05T02:13:45.117Z,34.42
2023-03-05T02:16:12.172Z,34.75
2023-03-05T02:18:38.836Z,34.14
2023-03-05T02:21:06.303Z,34.66
2023-03-05T02:23:33.920Z,34.20
2023-03-05T02:26:00.520Z,34.68
2023-03-05T02:28:35.393Z,34.57
2023-03-05T02:31:02.115Z,34.24
2023-03-05T02:33:28.583Z,34.57
2023-03-05T02:35:55.465Z,34.04
2023-03-05T02:38:22.237Z,34.22
2023-03-05T02:40:48.742Z,34.06
2023-03-05T02:43:17.227Z,34.16
2023-03-05T02:45:43.941Z,34.63
2023-03-05T02:48:10.799Z,34.57
2023-03-05T02:50:39.656Z,34.29
2023-03-05T02:53:07.353Z,34.19
2023-03-05T02:55:33.993Z,34.00
2023-03-05T02:58:00.663Z,34.32
2023-03-05T03:00:27.790Z,34.37
2023-03-05T03:02:55.215Z,34.07
2023-03-05T03:05:21.741Z,34.27
2023-03-05T03:07:50.317Z,33.95
2023-03-05T03:10:17.291Z,34.11
2023-03-05T03:12:44.404Z,34.18
2023-03-05T03:15:13.424Z,34.26
2023-03-05T03:17:40.007Z,34.06
2023-03-05T03:20:08.640Z,33.65
2023-03-05T03:22:35.084Z,33.96
2023-03-05T03:25:01.679Z,33.82
2023-03-05T03:27:28.188Z,33.71
2023-03-05T03:29:54.731Z,33.44
2023-03-05T03:32:21.393Z,33.69
2023-03-05T03:34:48.293Z,33.56
2023-03-05T03:37:14.987Z,33.58
2023-03-05T03:39:41.833Z,33.48
2023-03-05T03:42:08.282Z,33.38
2023-03-05T03:44:34.854Z,33.31
2023-03-05T03:47:01.651Z,33.17
2023-03-05T03:49:28.275Z,33.27
2023-03-05T03:51:54.764Z,33.33
2023-03-05T03:54:21.815Z,33.12
2023-03-05T03:56:48.876Z,33.59
2023-03-05T03:59:15.403Z,33.24
2023-03-05T04:01:42.249Z,33.12
2023-03-05T04:04:09.987Z,33.09
2023-03-05T04:06:36.526Z,33.21
2023-03-05T04:09:04.515Z,33.15
2023-03-05T04:11:31.046Z,32.98
2023-03-05T04:13:57.523Z,33.10
2023-03-05T04:16:24.079Z,33.08
2023-03-05T04:18:50.668Z,32.70
2023-03-05T04:21:17.233Z,32.62
2023-03-05T04:23:43.922Z,32.70
2023-03-05T04:26:10.868Z,32.51
2023-03-05T04:28:37.597Z,32.71
2023-03-05T04:31:04.668Z,32.61
2023-03-05T04:33:31.503Z,32.48
2023-03-05T04:35:58.036Z,32.53
2023-03-05T04:38:24.919Z,32.56
2023-03-05T04:40:51.586Z,32.66
2023-03-05T04:43:18.127Z,32.51
2023-03-05T04:45:45.458Z,32.60
2023-03-05T04:48:12.620Z,32.58
2023-03-05T04:50:39.061Z,32.78
2023-03-05T04:53:05.593Z,32.88
2023-03-05T04:55:32.066Z,32.75
2023-03-05T04:57:58.602Z,32.72
2023-03-05T05:00:25.540Z,32.78
2023-03-05T05:02:52.264Z,32.86
2023-03-05T05:05:19.964Z,32.74
2023-03-05T05:07:47.010Z,32.60
2023-03-05T05:10:13.795Z,33.00
2023-03-05T05:12:40.466Z,32.55
2023-03-05T05:15:07.579Z,32.81
2023-03-05T05:17:34.206Z,33.13
2023-03-05T05:20:01.099Z,32.70
2023-03-05T05:22:28.718Z,33.22
2023-03-05T05:24:55.583Z,32.91
2023-03-05T05:27:22.167Z,33.06
2023-03-05T05:29:52.944Z,33.21
2023-03-05T05:32:20.021Z,33.34
2023-03-05T05:34:46.633Z,33.45
2023-03-05T05:37:13.135Z,33.22
2023-03-05T05:39:39.616Z,33.23
2023-03-05T05:42:06.426Z,33.49
2023-03-05T05:44:34.844Z,33.23
2023-03-05T05:47:01.800Z,33.16
2023-03-05T05:49:28.282Z,33.70
2023-03-05T05:51:55.043Z,33.27
2023-03-05T05:54:21.999Z,33.25
2023-03-05T05:56:48.508Z,33.21
2023-03-05T05:59:14.988Z,33.18
2023-03-05T06:01:41.567Z,33.52
2023-03-05T06:04:08.027Z,33.47
2023-03-05T06:06:35.015Z,33.58
2023-03-05T06:09:01.752Z,33.58
2023-03-05T06:11:28.313Z,33.46
2023-03-05T06:13:54.964Z,33.69
2023-03-05T06:16:24.425Z,32.16
2023-03-05T06:18:51.331Z,32.30
2023-03-05T06:21:18.278Z,33.13
2023-03-05T06:23:45.150Z,33.04
2023-03-05T06:26:12.499Z,33.10
2023-03-05T06:28:39.200Z,32.85
2023-03-05T06:31:12.425Z,32.78
2023-03-05T06:33:40.638Z,33.23
2023-03-05T06:36:08.241Z,33.03
2023-03-05T06:38:34.866Z,33.35
2023-03-05T06:41:01.835Z,33.23
2023-03-05T06:43:28.341Z,33.11
2023-03-05T06:46:01.728Z,32.97
2023-03-05T06:48:28.303Z,33.01
2023-03-05T06:50:54.910Z,33.13
2023-03-05T06:53:21.476Z,33.00
2023-03-05T06:55:48.002Z,33.46
2023-03-05T06:58:14.504Z,33.49
2023-03-05T07:00:41.487Z,32.88
2023-03-05T07:03:08.169Z,33.11
2023-03-05T07:05:37.716Z,33.18
2023-03-05T07:08:04.207Z,33.04
2023-03-05T07:10:30.811Z,33.13
2023-03-05T07:12:57.438Z,33.24
2023-03-05T07:15:23.896Z,33.25
2023-03-05T07:17:50.796Z,33.11
2023-03-05T07:20:17.233Z,33.10
2023-03-05T07:22:43.797Z,33.16
2023-03-05T07:25:10.614Z,33.37
2023-03-05T07:27:37.918Z,33.05
2023-03-05T07:30:04.789Z,33.41
2023-03-05T07:32:32.096Z,33.13
2023-03-05T07:34:58.737Z,33.07
2023-03-05T07:37:25.309Z,33.69
2023-03-05T07:39:51.947Z,33.38
2023-03-05T07:42:18.976Z,33.66
2023-03-05T07:44:53.028Z,33.58
2023-03-05T07:47:19.538Z,33.81
2023-03-05T07:49:46.186Z,33.65
2023-03-05T07:52:12.825Z,33.50
2023-03-05T07:54:39.437Z,33.55
2023-03-05T07:57:06.461Z,33.39
2023-03-05T07:59:32.940Z,33.45
2023-03-05T08:01:59.731Z,33.73
2023-03-05T08:04:26.388Z,33.71
2023-03-05T08:06:52.982Z,33.82
2023-03-05T08:09:19.780Z,33.65
2023-03-05T08:11:46.338Z,33.45
2023-03-05T08:14:12.822Z,33.45
2023-03-05T08:16:39.576Z,33.88
2023-03-05T08:19:06.413Z,33.48
2023-03-05T08:21:34.343Z,33.69
2023-03-05T08:24:05.303Z,33.63
2023-03-05T08:26:32.359Z,33.78
2023-03-05T08:28:58.871Z,33.55
2023-03-05T08:31:25.918Z,33.71
2023-03-05T08:33:53.383Z,33.56
2023-03-05T08:36:19.902Z,33.45
2023-03-05T08:38:48.423Z,33.43
2023-03-05T08:41:16.098Z,33.73
2023-03-05T08:43:42.775Z,33.39
2023-03-05T08:46:10.401Z,33.38
2023-03-05T08:48:36.953Z,33.47
2023-03-05T08:51:29.936Z,33.45
2023-03-05T08:53:58.046Z,33.37
2023-03-05T08:56:28.405Z,33.29
2023-03-05T08:58:55.104Z,33.29
2023-03-05T09:01:22.509Z,33.36
2023-03-05T09:03:49.219Z,33.59
2023-03-05T09:06:15.744Z,33.53
2023-03-05T09:08:42.218Z,33.53
2023-03-05T09:11:09.466Z,33.59
2023-03-05T09:13:37.526Z,33.50
2023-03-05T09:16:05.197Z,33.47
2023-03-05T09:18:31.867Z,33.55
2023-03-05T09:20:58.407Z,33.82
2023-03-05T09:23:25.092Z,33.71
2023-03-05T09:25:51.529Z,33.78
2023-03-05T09:28:36.532Z,33.89
2023-03-05T09:31:21.497Z,33.65
2023-03-05T09:34:08.194Z,33.56
2023-03-05T09:36:53.273Z,33.93
2023-03-05T09:39:38.062Z,33.67
2023-03-05T09:42:41.658Z,33.62
2023-03-05T09:45:53.493Z,33.29
2023-03-05T09:48:42.977Z,33.23
2023-03-05T09:51:29.467Z,33.19
2023-03-05T09:54:18.398Z,33.15
2023-03-05T09:57:04.412Z,32.96
2023-03-05T09:59:59.915Z,32.88
2023-03-05T10:02:48.391Z,33.07
2023-03-05T10:05:33.347Z,33.11
2023-03-05T10:08:19.464Z,32.86
2023-03-05T10:11:05.638Z,32.98
2023-03-05T10:13:52.197Z,32.87
2023-03-05T10:16:43.241Z,32.85
2023-03-05T10:19:40.616Z,32.82
2023-03-05T10:22:29.357Z,32.88
2023-03-05T10:25:19.552Z,32.70
2023-03-05T10:28:06.038Z,32.76
2023-03-05T10:31:10.235Z,32.88
2023-03-05T10:34:02.338Z,32.88
2023-03-05T10:36:50.763Z,32.82
2023-03-05T10:39:48.069Z,32.95
2023-03-05T10:42:52.111Z,32.89
2023-03-05T10:45:42.094Z,32.82
2023-03-05T10:48:27.338Z,32.86
2023-03-05T10:51:13.809Z,32.83
2023-03-05T10:53:59.892Z,32.97
2023-03-05T10:56:44.886Z,33.08
2023-03-05T10:59:29.904Z,32.95
2023-03-05T11:02:15.203Z,32.85
2023-03-05T11:05:00.477Z,32.98
2023-03-05T11:07:45.443Z,32.92
2023-03-05T11:10:30.126Z,32.93
2023-03-05T11:13:20.829Z,33.03
2023-03-05T11:16:07.154Z,32.96
2023-03-05T11:18:37.685Z,32.90
2023-03-05T11:21:06.817Z,32.90
2023-03-05T11:23:33.281Z,32.88
2023-03-05T11:26:05.672Z,32.88
2023-03-05T11:28:35.044Z,33.06
2023-03-05T11:31:16.812Z,32.86
2023-03-05T11:33:55.347Z,33.04
2023-03-05T11:36:26.652Z,33.05
2023-03-05T11:38:54.843Z,32.95
2023-03-05T11:41:23.556Z,32.97
2023-03-05T11:43:50.808Z,32.78
2023-03-05T11:46:18.813Z,33.05
2023-03-05T11:48:46.046Z,33.11
2023-03-05T11:51:21.348Z,33.10
2023-03-05T11:53:50.847Z,33.07
2023-03-05T11:56:18.962Z,32.80
2023-03-05T11:58:50.518Z,33.14
2023-03-05T12:01:22.060Z,32.90
2023-03-05T12:03:50.032Z,32.76
2023-03-05T12:06:17.852Z,32.43
2023-03-05T12:08:45.227Z,32.59
2023-03-05T12:11:14.825Z,32.73
2023-03-05T12:13:43.270Z,33.09
2023-03-05T12:16:15.706Z,33.17
2023-03-05T12:18:57.366Z,33.82
2023-03-05T12:21:32.996Z,34.10
2023-03-05T12:24:01.784Z,34.43
2023-03-05T12:26:47.059Z,33.86
2023-03-05T12:29:39.991Z,34.19
2023-03-05T12:32:21.923Z,34.29
2023-03-05T12:34:49.688Z,34.35
2023-03-05T12:37:22.095Z,34.20
2023-03-05T12:39:49.719Z,34.52
2023-03-05T12:42:28.464Z,36.73
2023-03-05T12:45:10.264Z,36.02
2023-03-05T12:47:38.740Z,28.07
2023-03-05T12:50:26.506Z,28.58
2023-03-05T12:53:00.147Z,30.50
2023-03-05T12:55:27.590Z,31.76
2023-03-05T12:58:01.153Z,32.70
2023-03-05T13:00:33.637Z,33.41
2023-03-05T13:03:00.769Z,34.63
2023-03-05T13:05:29.181Z,35.25
2023-03-05T13:08:09.677Z,35.74
2023-03-05T13:10:36.209Z,36.65
2023-03-05T13:13:02.649Z,36.40
2023-03-05T13:15:29.154Z,36.68
2023-03-05T13:17:56.651Z,36.77
2023-03-05T13:20:26.210Z,37.34
2023-03-05T13:23:07.666Z,37.80
2023-03-05T13:25:34.219Z,38.10
2023-03-05T13:28:04.566Z,38.23
2023-03-05T13:30:33.036Z,38.20
2023-03-05T13:33:02.841Z,38.78
2023-03-05T13:35:29.822Z,38.53
2023-03-05T13:37:56.635Z,38.91
2023-03-05T13:40:24.704Z,39.31
2023-03-05T13:42:53.149Z,39.46
2023-03-05T13:45:22.788Z,39.86
2023-03-05T13:47:56.045Z,39.81
2023-03-05T13:50:23.977Z,40.75
2023-03-05T13:52:50.639Z,40.40
2023-03-05T13:55:17.890Z,40.75
2023-03-05T13:57:45.733Z,40.91
2023-03-05T14:00:25.810Z,40.82
2023-03-05T14:02:58.604Z,40.41
2023-03-05T14:05:26.224Z,40.92
2023-03-05T14:07:52.740Z,40.67
2023-03-05T14:10:25.443Z,40.51
2023-03-05T14:12:51.976Z,40.45
2023-03-05T14:15:25.694Z,40.82
2023-03-05T14:17:52.365Z,40.96
2023-03-05T14:20:27.361Z,40.91
2023-03-05T14:22:57.971Z,40.64
2023-03-05T14:25:24.413Z,41.25
2023-03-05T14:27:51.205Z,42.57
2023-03-05T14:30:17.745Z,41.39
2023-03-05T14:32:44.375Z,41.57
2023-03-05T14:35:21.054Z,41.07
2023-03-05T14:37:50.238Z,41.67
2023-03-05T14:40:27.732Z,41.58
2023-03-05T14:42:58.054Z,41.64
2023-03-05T14:45:28.718Z,41.88
2023-03-05T14:47:56.114Z,41.70
2023-03-05T14:50:22.559Z,42.06
2023-03-05T14:52:50.178Z,41.42
2023-03-05T14:55:17.271Z,40.04
2023-03-05T14:57:43.835Z,37.22
2023-03-05T15:00:15.221Z,37.22
2023-03-05T15:02:41.779Z,36.44
2023-03-05T15:07:39.739Z,32.30
2023-03-05T15:10:07.784Z,34.67
2023-03-05T15:12:34.480Z,34.81
2023-03-05T15:15:01.270Z,35.81
2023-03-05T15:17:34.844Z,36.47
2023-03-05T15:20:01.754Z,37.11
2023-03-05T15:22:28.637Z,37.41
2023-03-05T15:24:55.287Z,37.47
2023-03-05T15:27:21.715Z,37.65
2023-03-05T15:29:49.381Z,37.88
2023-03-05T15:32:15.881Z,37.63
2023-03-05T15:34:42.596Z,38.05
2023-03-05T15:37:10.489Z,38.38
2023-03-05T15:39:37.256Z,38.24
2023-03-05T15:42:05.952Z,38.58
2023-03-05T15:44:32.983Z,39.09
2023-03-05T15:46:59.470Z,38.53
2023-03-05T15:49:26.093Z,39.37
2023-03-05T15:51:52.914Z,39.78
2023-03-05T15:54:19.615Z,40.40
2023-03-05T15:56:46.098Z,40.49
2023-03-05T15:59:13.473Z,40.76
2023-03-05T16:01:39.968Z,40.58
2023-03-05T16:04:06.594Z,40.60
2023-03-05T16:06:33.123Z,41.01
2023-03-05T16:09:02.131Z,41.72
2023-03-05T16:11:28.633Z,41.89
2023-03-05T16:13:55.283Z,40.51
2023-03-05T16:16:23.569Z,39.87
2023-03-05T16:18:50.150Z,40.56
2023-03-05T16:21:16.650Z,40.98
2023-03-05T16:23:43.246Z,41.62
2023-03-05T16:26:10.521Z,41.50
2023-03-05T16:28:37.853Z,41.33
2023-03-05T16:31:04.626Z,41.39
2023-03-05T16:33:31.723Z,41.33
2023-03-05T16:36:24.981Z,41.60
2023-03-05T16:38:52.639Z,41.60
2023-03-05T16:41:22.025Z,41.86
2023-03-05T16:43:53.473Z,41.71
2023-03-05T16:46:19.977Z,41.47
2023-03-05T16:48:46.504Z,41.67
2023-03-05T16:51:12.992Z,41.88
2023-03-05T16:53:39.645Z,41.45
2023-03-05T16:56:06.933Z,41.49
2023-03-05T16:58:33.828Z,41.82
2023-03-05T17:01:00.841Z,41.83
2023-03-05T17:03:27.554Z,41.87
2023-03-05T17:05:54.373Z,41.69
2023-03-05T17:08:24.284Z,41.96
2023-03-05T17:10:50.976Z,42.08
2023-03-05T17:13:17.708Z,41.82
2023-03-05T17:15:44.454Z,42.10
2023-03-05T17:18:11.646Z,41.84
2023-03-05T17:20:38.110Z,42.01
2023-03-05T17:23:04.680Z,42.17
2023-03-05T17:25:31.236Z,42.13
2023-03-05T17:27:57.790Z,42.18
2023-03-05T17:30:24.261Z,42.03
2023-03-05T17:32:52.060Z,41.99
2023-03-05T17:35:19.352Z,41.98
2023-03-05T17:37:45.870Z,41.74
2023-03-05T17:40:13.336Z,41.73
2023-03-05T17:42:39.793Z,42.10
2023-03-05T17:45:07.043Z,42.01
2023-03-05T17:47:34.043Z,41.70
2023-03-05T17:50:01.277Z,41.90
2023-03-05T17:52:29.658Z,41.71
2023-03-05T17:54:57.350Z,41.61
2023-03-05T17:57:24.572Z,41.49
2023-03-05T17:59:51.564Z,41.57
2023-03-05T18:02:19.820Z,41.22
2023-03-05T18:04:47.953Z,41.52
2023-03-05T18:07:14.547Z,41.33
2023-03-05T18:09:41.004Z,41.12
2023-03-05T18:12:07.526Z,41.11
2023-03-05T18:14:33.986Z,41.32
2023-03-05T18:17:00.728Z,41.12
2023-03-05T18:19:27.262Z,41.01
2023-03-05T18:21:54.042Z,41.10
2023-03-05T18:24:20.516Z,41.00
2023-03-05T18:26:47.012Z,40.68
2023-03-05T18:29:14.032Z,40.96
2023-03-05T18:31:40.519Z,40.83
2023-03-05T18:34:06.995Z,40.88
2023-03-05T18:36:33.489Z,40.73
2023-03-05T18:38:59.949Z,40.69
2023-03-05T18:41:28.145Z,40.41
2023-03-05T18:43:54.872Z,40.38
2023-03-05T18:46:22.384Z,40.32
2023-03-05T18:48:48.985Z,40.82
2023-03-05T18:51:16.614Z,40.36
2023-03-05T18:53:43.037Z,40.42
2023-03-05T18:56:09.850Z,40.54
2023-03-05T18:58:36.761Z,40.35
2023-03-05T19:01:03.841Z,40.27
2023-03-05T19:03:30.448Z,40.01
2023-03-05T19:05:56.962Z,40.33
2023-03-05T19:08:23.415Z,40.27
2023-03-05T19:10:50.001Z,40.26
2023-03-05T19:13:43.376Z,40.00
2023-03-05T19:16:11.100Z,39.82
2023-03-05T19:18:43.856Z,40.00
2023-03-05T19:21:10.478Z,34.50
2023-03-05T19:23:37.223Z,34.07
2023-03-05T19:26:03.760Z,34.23
2023-03-05T19:28:30.355Z,34.20
2023-03-05T19:30:57.700Z,34.03
2023-03-05T19:33:25.097Z,33.88
2023-03-05T19:35:51.886Z,34.04
2023-03-05T19:38:18.666Z,33.92
2023-03-05T19:40:45.194Z,34.42
2023-03-05T19:43:11.703Z,34.38
2023-03-05T19:45:39.132Z,34.27
2023-03-05T19:48:05.803Z,34.23
2023-03-05T19:50:34.432Z,34.21
2023-03-05T19:53:01.164Z,34.05
2023-03-05T19:55:27.687Z,34.22
2023-03-05T19:57:54.147Z,34.18
2023-03-05T20:00:20.899Z,34.33
2023-03-05T20:02:48.614Z,34.44
2023-03-05T20:05:15.140Z,34.53
2023-03-05T20:07:41.636Z,34.52
2023-03-05T20:10:08.626Z,34.40
2023-03-05T20:12:36.324Z,34.25
2023-03-05T20:15:02.900Z,34.63
2023-03-05T20:17:29.483Z,34.47
2023-03-05T20:19:58.885Z,34.16
2023-03-05T20:22:25.386Z,34.56
2023-03-05T20:24:51.989Z,34.26
2023-03-05T20:27:18.417Z,34.37
2023-03-05T20:29:44.936Z,34.21
2023-03-05T20:32:11.441Z,34.29
2023-03-05T20:34:37.996Z,34.30
2023-03-05T20:37:05.584Z,34.30
2023-03-05T20:39:32.059Z,34.30
2023-03-05T20:41:58.743Z,34.23
2023-03-05T20:44:25.912Z,34.37
2023-03-05T20:47:02.460Z,34.56
2023-03-05T20:49:29.080Z,34.64
2023-03-05T20:51:55.563Z,34.27
2023-03-05T20:54:22.276Z,34.46
2023-03-05T20:56:48.817Z,34.35
2023-03-05T20:59:17.548Z,34.26
2023-03-05T21:01:44.197Z,34.29
2023-03-05T21:04:11.391Z,34.42
2023-03-05T21:06:37.947Z,34.42
2023-03-05T21:09:04.495Z,34.24
2023-03-05T21:11:31.909Z,34.30
2023-03-05T21:13:59.247Z,34.32
2023-03-05T21:16:26.043Z,34.41
2023-03-05T21:18:53.089Z,34.26
2023-03-05T21:21:19.793Z,34.36
2023-03-05T21:23:46.966Z,34.32
2023-03-05T21:26:14.330Z,34.44
2023-03-05T21:28:41.156Z,34.56
2023-03-05T21:31:08.887Z,34.44
2023-03-05T21:33:35.668Z,34.39
2023-03-05T21:36:02.254Z,34.68
2023-03-05T21:38:30.773Z,34.46
2023-03-05T21:40:58.547Z,34.70
2023-03-05T21:43:26.505Z,34.83
2023-03-05T21:45:54.750Z,34.86
2023-03-05T21:48:22.073Z,34.88
2023-03-05T21:50:48.880Z,34.88
2023-03-05T21:53:16.720Z,35.01
2023-03-05T21:55:53.093Z,35.03
2023-03-05T21:58:19.573Z,35.01
2023-03-05T22:00:46.379Z,35.04
2023-03-05T22:03:12.996Z,35.30
2023-03-05T22:05:46.640Z,34.99
2023-03-05T22:08:13.326Z,35.14
2023-03-05T22:10:40.059Z,35.14
2023-03-05T22:13:10.124Z,35.12
2023-03-05T22:15:46.390Z,35.26
2023-03-05T22:18:14.055Z,35.22
2023-03-05T22:20:40.516Z,35.19
2023-03-05T22:23:07.170Z,35.33
2023-03-05T22:25:33.669Z,35.36
2023-03-05T22:28:00.203Z,35.15
2023-03-05T22:30:28.231Z,35.24
2023-03-05T22:32:54.770Z,35.25
2023-03-05T22:35:21.383Z,35.39
2023-03-05T22:37:47.928Z,35.48
2023-03-05T22:40:15.986Z,35.37
2023-03-05T22:42:42.654Z,35.74
2023-03-05T22:45:09.270Z,35.52
2023-03-05T22:47:35.789Z,35.26
2023-03-05T22:50:02.253Z,35.31
2023-03-05T22:52:28.910Z,35.38
2023-03-05T22:54:56.103Z,35.54
2023-03-05T22:57:22.611Z,35.36
2023-03-05T22:59:49.805Z,35.62
2023-03-05T23:02:16.839Z,35.67
2023-03-05T23:04:49.969Z,35.49
2023-03-05T23:07:17.523Z,35.48
2023-03-05T23:09:44.308Z,35.61
2023-03-05T23:12:11.482Z,35.82
2023-03-05T23:14:38.003Z,35.85
2023-03-05T23:17:04.525Z,35.80
2023-03-05T23:19:31.156Z,35.62
2023-03-05T23:21:57.662Z,35.66
2023-03-05T23:24:24.142Z,35.33
2023-03-05T23:26:51.458Z,35.58
2023-03-05T23:29:17.910Z,35.72
2023-03-05T23:31:44.425Z,35.51
2023-03-05T23:34:11.061Z,35.49
2023-03-05T23:36:37.583Z,35.82
2023-03-05T23:39:04.098Z,35.75
2023-03-05T23:41:30.977Z,35.49
2023-03-05T23:43:57.413Z,35.52
2023-03-05T23:46:24.024Z,35.68
2023-03-05T23:48:50.515Z,35.75
2023-03-05T23:51:17.508Z,35.88
2023-03-05T23:53:44.090Z,35.61
2023-03-05T23:56:11.165Z,35.55
2023-03-05T23:58:38.135Z,35.82
